Portada
Imágenes satélite Pronóstico 15 díasClimaPredicción Marítima Ciclones Rayo AeropuertosFAQ Noticias Acerca
El tiempo : Europa África América del Norte América del Sur Asia Australia-Oceanía Otros
Idiomas Contacto

Tarbes Lourdes, Francia

Ossun

latitud: 43-11N, longitud: 000-00W, altitud: 379 m


METAR: LFBT 230800Z AUTO VRB02KT 9999 NSC 09/06 Q1026
TAF: LFBT 230500Z 2306/2406 VRB05KT CAVOK TEMPO 2312/2318 03008KT

Hora: 10:36 (08:36 UTC)

Observación

El informe se hizo hace 36 minutos, a las 08:00 UTC
Viento 2 kt con dirección variable
Temperatura 9°C
Humedad 81%
Presión 1026 hPa
Visibilidad 10 km o más

Cambiar las unidades

Pronóstico

El informe se hizo hace 3 horas y 36 minutos, a las 05:00 UTC
Pronóstico válido del 23 a las 06 UTC al 24 a las 06 UTC
Viento 5 kt con dirección variable
Visibilidad 10 km o más
sin nubes por debajo de 1500 m y sin presencia de cumulonimbus.
Temporalmente
del 23 a las 12 UTC al 23 a las 18 UTC
Viento 8 kt del norte-noreste
La información que se ofrece en estas páginas está sujeta a una cláusula de exención de responsabilidad
El tiempo : Europa África América del Norte América del Sur Asia Australia-Oceanía Otros
Imágenes satélite Pronóstico 15 díasClimaPredicción Marítima Ciclones Rayo AeropuertosFAQ Idiomas Contacto Noticias Acerca